sensor_id;sensor_type;location;lat;lon;timestamp;temperature;humidity
24522;DHT22;12680;57.804;12.190;2023-04-24T00:01:07;7.90;98.00
24522;DHT22;12680;57.804;12.190;2023-04-24T00:03:34;7.90;97.90
24522;DHT22;12680;57.804;12.190;2023-04-24T00:06:02;8.00;98.00
24522;DHT22;12680;57.804;12.190;2023-04-24T00:08:29;7.90;98.20
24522;DHT22;12680;57.804;12.190;2023-04-24T00:10:56;8.00;98.20
24522;DHT22;12680;57.804;12.190;2023-04-24T00:13:23;8.00;98.00
24522;DHT22;12680;57.804;12.190;2023-04-24T00:15:51;8.00;98.20
24522;DHT22;12680;57.804;12.190;2023-04-24T00:18:17;8.00;98.20
24522;DHT22;12680;57.804;12.190;2023-04-24T00:20:44;8.10;98.20
24522;DHT22;12680;57.804;12.190;2023-04-24T00:23:11;8.10;98.30
24522;DHT22;12680;57.804;12.190;2023-04-24T00:25:38;8.20;98.40
24522;DHT22;12680;57.804;12.190;2023-04-24T00:28:06;8.20;98.40
24522;DHT22;12680;57.804;12.190;2023-04-24T00:30:33;8.30;98.30
24522;DHT22;12680;57.804;12.190;2023-04-24T00:32:59;8.30;98.30
24522;DHT22;12680;57.804;12.190;2023-04-24T00:35:26;8.30;98.30
24522;DHT22;12680;57.804;12.190;2023-04-24T00:37:53;9.40;98.70
24522;DHT22;12680;57.804;12.190;2023-04-24T00:40:20;8.30;98.40
24522;DHT22;12680;57.804;12.190;2023-04-24T00:42:47;8.30;98.50
24522;DHT22;12680;57.804;12.190;2023-04-24T00:45:15;8.30;98.40
24522;DHT22;12680;57.804;12.190;2023-04-24T00:47:42;8.30;98.40
24522;DHT22;12680;57.804;12.190;2023-04-24T00:50:09;8.30;98.50
24522;DHT22;12680;57.804;12.190;2023-04-24T00:52:36;8.20;98.50
24522;DHT22;12680;57.804;12.190;2023-04-24T00:55:04;8.20;98.50
24522;DHT22;12680;57.804;12.190;2023-04-24T00:57:30;8.20;98.50
24522;DHT22;12680;57.804;12.190;2023-04-24T00:59:57;8.20;98.80
24522;DHT22;12680;57.804;12.190;2023-04-24T01:02:24;8.20;99.10
24522;DHT22;12680;57.804;12.190;2023-04-24T01:04:52;8.20;98.80
24522;DHT22;12680;57.804;12.190;2023-04-24T01:07:22;8.20;98.90
24522;DHT22;12680;57.804;12.190;2023-04-24T01:09:49;9.10;99.10
24522;DHT22;12680;57.804;12.190;2023-04-24T01:12:18;8.20;98.90
24522;DHT22;12680;57.804;12.190;2023-04-24T01:14:45;8.10;98.90
24522;DHT22;12680;57.804;12.190;2023-04-24T01:17:12;8.10;98.90
24522;DHT22;12680;57.804;12.190;2023-04-24T01:19:39;9.50;99.40
24522;DHT22;12680;57.804;12.190;2023-04-24T01:22:13;8.20;99.00
24522;DHT22;12680;57.804;12.190;2023-04-24T01:24:41;8.10;98.90
24522;DHT22;12680;57.804;12.190;2023-04-24T01:27:09;8.10;98.90
24522;DHT22;12680;57.804;12.190;2023-04-24T01:29:36;8.10;98.90
24522;DHT22;12680;57.804;12.190;2023-04-24T01:32:04;8.00;98.80
24522;DHT22;12680;57.804;12.190;2023-04-24T01:34:32;8.00;98.80
24522;DHT22;12680;57.804;12.190;2023-04-24T01:36:59;7.90;98.70
24522;DHT22;12680;57.804;12.190;2023-04-24T01:39:26;7.80;98.60
24522;DHT22;12680;57.804;12.190;2023-04-24T01:41:55;7.80;98.70
24522;DHT22;12680;57.804;12.190;2023-04-24T01:44:22;7.80;98.90
24522;DHT22;12680;57.804;12.190;2023-04-24T01:46:49;8.30;99.10
24522;DHT22;12680;57.804;12.190;2023-04-24T01:49:17;7.80;99.00
24522;DHT22;12680;57.804;12.190;2023-04-24T01:51:44;7.80;99.10
24522;DHT22;12680;57.804;12.190;2023-04-24T01:54:11;7.70;99.10
24522;DHT22;12680;57.804;12.190;2023-04-24T01:56:41;7.70;99.10
24522;DHT22;12680;57.804;12.190;2023-04-24T01:59:12;7.60;99.10
24522;DHT22;12680;57.804;12.190;2023-04-24T02:01:39;7.60;99.20
24522;DHT22;12680;57.804;12.190;2023-04-24T02:04:07;7.60;99.20
24522;DHT22;12680;57.804;12.190;2023-04-24T02:06:35;7.50;99.10
24522;DHT22;12680;57.804;12.190;2023-04-24T02:09:02;7.50;99.00
24522;DHT22;12680;57.804;12.190;2023-04-24T02:11:30;7.40;99.10
24522;DHT22;12680;57.804;12.190;2023-04-24T02:13:57;7.40;99.20
24522;DHT22;12680;57.804;12.190;2023-04-24T02:16:24;7.30;99.20
24522;DHT22;12680;57.804;12.190;2023-04-24T02:18:51;7.30;99.30
24522;DHT22;12680;57.804;12.190;2023-04-24T02:21:18;7.30;99.40
24522;DHT22;12680;57.804;12.190;2023-04-24T02:23:45;7.30;99.20
24522;DHT22;12680;57.804;12.190;2023-04-24T02:26:11;7.30;99.20
24522;DHT22;12680;57.804;12.190;2023-04-24T02:28:38;8.30;99.70
24522;DHT22;12680;57.804;12.190;2023-04-24T02:31:05;7.30;99.40
24522;DHT22;12680;57.804;12.190;2023-04-24T02:33:32;7.30;99.40
24522;DHT22;12680;57.804;12.190;2023-04-24T02:35:59;8.80;99.90
24522;DHT22;12680;57.804;12.190;2023-04-24T02:38:26;7.30;99.60
24522;DHT22;12680;57.804;12.190;2023-04-24T02:40:53;7.40;99.60
24522;DHT22;12680;57.804;12.190;2023-04-24T02:43:20;8.00;99.60
24522;DHT22;12680;57.804;12.190;2023-04-24T02:45:47;7.30;99.30
24522;DHT22;12680;57.804;12.190;2023-04-24T02:48:14;7.30;99.70
24522;DHT22;12680;57.804;12.190;2023-04-24T02:50:41;7.30;99.40
24522;DHT22;12680;57.804;12.190;2023-04-24T02:53:08;7.40;99.40
24522;DHT22;12680;57.804;12.190;2023-04-24T02:55:34;7.30;99.40
24522;DHT22;12680;57.804;12.190;2023-04-24T02:58:02;7.30;99.50
24522;DHT22;12680;57.804;12.190;2023-04-24T03:00:29;7.40;99.50
24522;DHT22;12680;57.804;12.190;2023-04-24T03:02:56;7.30;99.30
24522;DHT22;12680;57.804;12.190;2023-04-24T03:05:23;7.40;99.40
24522;DHT22;12680;57.804;12.190;2023-04-24T03:07:50;7.40;99.30
24522;DHT22;12680;57.804;12.190;2023-04-24T03:10:19;7.30;99.60
24522;DHT22;12680;57.804;12.190;2023-04-24T03:12:46;7.40;99.20
24522;DHT22;12680;57.804;12.190;2023-04-24T03:15:13;7.40;99.20
24522;DHT22;12680;57.804;12.190;2023-04-24T03:17:39;8.50;99.50
24522;DHT22;12680;57.804;12.190;2023-04-24T03:20:07;7.30;99.50
24522;DHT22;12680;57.804;12.190;2023-04-24T03:22:34;7.30;99.10
24522;DHT22;12680;57.804;12.190;2023-04-24T03:25:02;7.30;99.30
24522;DHT22;12680;57.804;12.190;2023-04-24T03:27:28;7.30;99.30
24522;DHT22;12680;57.804;12.190;2023-04-24T03:29:55;7.30;99.30
24522;DHT22;12680;57.804;12.190;2023-04-24T03:32:22;7.30;99.30
24522;DHT22;12680;57.804;12.190;2023-04-24T03:34:49;7.20;99.20
24522;DHT22;12680;57.804;12.190;2023-04-24T03:37:17;7.20;99.30
24522;DHT22;12680;57.804;12.190;2023-04-24T03:39:44;7.20;99.30
24522;DHT22;12680;57.804;12.190;2023-04-24T03:42:11;7.30;99.30
24522;DHT22;12680;57.804;12.190;2023-04-24T03:44:38;7.30;99.30
24522;DHT22;12680;57.804;12.190;2023-04-24T03:47:04;7.30;99.30
24522;DHT22;12680;57.804;12.190;2023-04-24T03:49:31;7.20;99.30
24522;DHT22;12680;57.804;12.190;2023-04-24T03:51:58;7.20;99.40
24522;DHT22;12680;57.804;12.190;2023-04-24T03:54:26;7.20;99.50
24522;DHT22;12680;57.804;12.190;2023-04-24T03:56:53;7.20;99.50
24522;DHT22;12680;57.804;12.190;2023-04-24T03:59:19;7.20;99.50
24522;DHT22;12680;57.804;12.190;2023-04-24T04:01:46;7.20;99.80
24522;DHT22;12680;57.804;12.190;2023-04-24T04:04:13;7.20;99.50
24522;DHT22;12680;57.804;12.190;2023-04-24T04:06:40;7.30;99.70
24522;DHT22;12680;57.804;12.190;2023-04-24T04:09:07;7.30;99.70
24522;DHT22;12680;57.804;12.190;2023-04-24T04:11:34;7.30;99.50
24522;DHT22;12680;57.804;12.190;2023-04-24T04:14:02;7.30;99.50
24522;DHT22;12680;57.804;12.190;2023-04-24T04:16:28;7.40;99.90
24522;DHT22;12680;57.804;12.190;2023-04-24T04:18:55;7.50;99.70
24522;DHT22;12680;57.804;12.190;2023-04-24T04:21:22;7.60;99.90
24522;DHT22;12680;57.804;12.190;2023-04-24T04:23:49;7.70;99.90
24522;DHT22;12680;57.804;12.190;2023-04-24T04:26:16;7.80;99.90
24522;DHT22;12680;57.804;12.190;2023-04-24T04:28:43;7.90;99.90
24522;DHT22;12680;57.804;12.190;2023-04-24T04:31:11;7.90;99.80
24522;DHT22;12680;57.804;12.190;2023-04-24T04:33:37;8.00;99.90
24522;DHT22;12680;57.804;12.190;2023-04-24T04:36:06;8.20;99.90
24522;DHT22;12680;57.804;12.190;2023-04-24T04:38:32;8.10;99.90
24522;DHT22;12680;57.804;12.190;2023-04-24T04:41:00;8.20;99.90
24522;DHT22;12680;57.804;12.190;2023-04-24T04:43:27;8.30;99.90
24522;DHT22;12680;57.804;12.190;2023-04-24T04:45:53;9.20;99.90
24522;DHT22;12680;57.804;12.190;2023-04-24T04:48:21;8.40;99.90
24522;DHT22;12680;57.804;12.190;2023-04-24T04:50:48;8.40;99.90
24522;DHT22;12680;57.804;12.190;2023-04-24T04:53:15;8.50;99.90
24522;DHT22;12680;57.804;12.190;2023-04-24T04:55:42;8.50;99.90
24522;DHT22;12680;57.804;12.190;2023-04-24T04:58:09;8.50;99.90
24522;DHT22;12680;57.804;12.190;2023-04-24T05:00:36;10.30;99.90
24522;DHT22;12680;57.804;12.190;2023-04-24T05:03:04;8.50;99.90
24522;DHT22;12680;57.804;12.190;2023-04-24T05:05:45;8.60;99.90
24522;DHT22;12680;57.804;12.190;2023-04-24T05:08:12;8.70;99.90
24522;DHT22;12680;57.804;12.190;2023-04-24T05:10:52;8.70;99.90
24522;DHT22;12680;57.804;12.190;2023-04-24T05:13:19;8.80;99.90
24522;DHT22;12680;57.804;12.190;2023-04-24T05:15:57;8.80;99.90
24522;DHT22;12680;57.804;12.190;2023-04-24T05:18:24;8.90;99.90
24522;DHT22;12680;57.804;12.190;2023-04-24T05:20:51;8.90;99.90
24522;DHT22;12680;57.804;12.190;2023-04-24T05:23:18;9.50;99.90
24522;DHT22;12680;57.804;12.190;2023-04-24T05:25:45;8.90;99.90
24522;DHT22;12680;57.804;12.190;2023-04-24T05:28:12;8.90;99.90
24522;DHT22;12680;57.804;12.190;2023-04-24T05:30:39;8.90;99.90
24522;DHT22;12680;57.804;12.190;2023-04-24T05:33:06;8.90;99.90
24522;DHT22;12680;57.804;12.190;2023-04-24T05:35:33;9.00;99.90
24522;DHT22;12680;57.804;12.190;2023-04-24T05:38:00;9.00;99.90
24522;DHT22;12680;57.804;12.190;2023-04-24T05:40:27;9.10;99.90
24522;DHT22;12680;57.804;12.190;2023-04-24T05:42:53;9.10;99.90
24522;DHT22;12680;57.804;12.190;2023-04-24T05:45:20;9.20;99.90
24522;DHT22;12680;57.804;12.190;2023-04-24T05:47:47;9.20;99.90
24522;DHT22;12680;57.804;12.190;2023-04-24T05:50:14;9.30;99.90
24522;DHT22;12680;57.804;12.190;2023-04-24T05:52:41;9.30;99.90
24522;DHT22;12680;57.804;12.190;2023-04-24T05:55:08;9.30;99.90
24522;DHT22;12680;57.804;12.190;2023-04-24T05:57:35;9.30;99.90
24522;DHT22;12680;57.804;12.190;2023-04-24T06:00:02;9.30;99.90
24522;DHT22;12680;57.804;12.190;2023-04-24T06:02:30;9.30;99.90
24522;DHT22;12680;57.804;12.190;2023-04-24T06:04:59;9.50;99.90
24522;DHT22;12680;57.804;12.190;2023-04-24T06:07:26;9.30;99.90
24522;DHT22;12680;57.804;12.190;2023-04-24T06:09:53;9.60;99.90
24522;DHT22;12680;57.804;12.190;2023-04-24T06:12:20;10.20;99.90
24522;DHT22;12680;57.804;12.190;2023-04-24T06:14:47;9.40;99.90
24522;DHT22;12680;57.804;12.190;2023-04-24T06:17:14;9.40;99.90
24522;DHT22;12680;57.804;12.190;2023-04-24T06:19:41;9.50;99.90
24522;DHT22;12680;57.804;12.190;2023-04-24T06:22:08;9.50;99.90
24522;DHT22;12680;57.804;12.190;2023-04-24T06:24:36;11.20;99.90
24522;DHT22;12680;57.804;12.190;2023-04-24T06:27:03;9.60;99.90
24522;DHT22;12680;57.804;12.190;2023-04-24T06:29:30;9.60;99.90
24522;DHT22;12680;57.804;12.190;2023-04-24T06:31:57;9.50;99.90
24522;DHT22;12680;57.804;12.190;2023-04-24T06:34:24;9.60;99.90
24522;DHT22;12680;57.804;12.190;2023-04-24T06:36:51;9.60;99.90
24522;DHT22;12680;57.804;12.190;2023-04-24T06:39:17;10.50;99.90
24522;DHT22;12680;57.804;12.190;2023-04-24T06:41:45;9.70;99.90
24522;DHT22;12680;57.804;12.190;2023-04-24T06:44:11;9.70;99.90
24522;DHT22;12680;57.804;12.190;2023-04-24T06:46:38;9.80;99.90
24522;DHT22;12680;57.804;12.190;2023-04-24T06:49:07;9.90;99.90
24522;DHT22;12680;57.804;12.190;2023-04-24T06:51:34;10.10;99.90
24522;DHT22;12680;57.804;12.190;2023-04-24T06:54:00;11.60;99.90
24522;DHT22;12680;57.804;12.190;2023-04-24T06:56:28;10.20;99.90
24522;DHT22;12680;57.804;12.190;2023-04-24T06:58:56;10.30;99.90
24522;DHT22;12680;57.804;12.190;2023-04-24T07:01:22;10.30;99.90
24522;DHT22;12680;57.804;12.190;2023-04-24T07:03:49;10.80;99.90
24522;DHT22;12680;57.804;12.190;2023-04-24T07:06:16;10.50;99.90
24522;DHT22;12680;57.804;12.190;2023-04-24T07:08:45;10.60;99.90
24522;DHT22;12680;57.804;12.190;2023-04-24T07:11:13;10.60;99.90
24522;DHT22;12680;57.804;12.190;2023-04-24T07:13:39;10.70;99.90
24522;DHT22;12680;57.804;12.190;2023-04-24T07:16:08;10.80;99.90
24522;DHT22;12680;57.804;12.190;2023-04-24T07:18:36;11.10;99.90
24522;DHT22;12680;57.804;12.190;2023-04-24T07:21:03;12.30;99.90
24522;DHT22;12680;57.804;12.190;2023-04-24T07:23:30;11.00;99.90
24522;DHT22;12680;57.804;12.190;2023-04-24T07:25:57;11.30;99.90
24522;DHT22;12680;57.804;12.190;2023-04-24T07:28:24;10.90;99.60
24522;DHT22;12680;57.804;12.190;2023-04-24T07:30:51;10.90;99.60
24522;DHT22;12680;57.804;12.190;2023-04-24T07:33:20;10.90;99.50
24522;DHT22;12680;57.804;12.190;2023-04-24T07:35:48;10.90;99.50
24522;DHT22;12680;57.804;12.190;2023-04-24T07:38:14;10.90;99.40
24522;DHT22;12680;57.804;12.190;2023-04-24T07:40:41;11.00;99.30
24522;DHT22;12680;57.804;12.190;2023-04-24T07:43:08;12.30;99.80
24522;DHT22;12680;57.804;12.190;2023-04-24T07:45:35;11.00;99.30
24522;DHT22;12680;57.804;12.190;2023-04-24T07:48:04;11.50;99.20
24522;DHT22;12680;57.804;12.190;2023-04-24T07:50:31;10.90;99.00
24522;DHT22;12680;57.804;12.190;2023-04-24T07:52:58;11.10;99.00
24522;DHT22;12680;57.804;12.190;2023-04-24T07:55:25;10.80;99.00
24522;DHT22;12680;57.804;12.190;2023-04-24T07:57:54;10.80;99.10
24522;DHT22;12680;57.804;12.190;2023-04-24T08:00:20;12.20;99.50
24522;DHT22;12680;57.804;12.190;2023-04-24T08:02:47;12.50;99.50
24522;DHT22;12680;57.804;12.190;2023-04-24T08:05:15;12.20;99.50
24522;DHT22;12680;57.804;12.190;2023-04-24T08:07:41;10.90;99.10
24522;DHT22;12680;57.804;12.190;2023-04-24T08:10:12;10.90;99.10
24522;DHT22;12680;57.804;12.190;2023-04-24T08:12:40;10.80;99.00
24522;DHT22;12680;57.804;12.190;2023-04-24T08:15:07;10.80;99.00
24522;DHT22;12680;57.804;12.190;2023-04-24T08:17:34;10.80;99.10
24522;DHT22;12680;57.804;12.190;2023-04-24T08:20:05;10.70;99.10
24522;DHT22;12680;57.804;12.190;2023-04-24T08:22:32;10.70;99.20
24522;DHT22;12680;57.804;12.190;2023-04-24T08:25:00;10.60;99.10
24522;DHT22;12680;57.804;12.190;2023-04-24T08:27:27;10.60;99.20
24522;DHT22;12680;57.804;12.190;2023-04-24T08:29:54;11.90;99.60
24522;DHT22;12680;57.804;12.190;2023-04-24T08:32:21;10.50;99.30
24522;DHT22;12680;57.804;12.190;2023-04-24T08:34:48;10.50;99.40
24522;DHT22;12680;57.804;12.190;2023-04-24T08:37:15;10.40;99.40
24522;DHT22;12680;57.804;12.190;2023-04-24T08:39:42;10.40;99.50
24522;DHT22;12680;57.804;12.190;2023-04-24T08:42:11;11.10;99.80
24522;DHT22;12680;57.804;12.190;2023-04-24T08:44:39;11.80;99.90
24522;DHT22;12680;57.804;12.190;2023-04-24T08:47:07;11.60;99.90
24522;DHT22;12680;57.804;12.190;2023-04-24T08:49:36;10.30;99.80
24522;DHT22;12680;57.804;12.190;2023-04-24T08:52:03;10.30;99.80
24522;DHT22;12680;57.804;12.190;2023-04-24T08:54:33;11.10;99.90
24522;DHT22;12680;57.804;12.190;2023-04-24T08:57:01;11.00;99.90
24522;DHT22;12680;57.804;12.190;2023-04-24T08:59:28;11.20;99.90
24522;DHT22;12680;57.804;12.190;2023-04-24T09:01:56;10.30;99.90
24522;DHT22;12680;57.804;12.190;2023-04-24T09:04:24;10.30;99.90
24522;DHT22;12680;57.804;12.190;2023-04-24T09:06:55;10.40;99.90
24522;DHT22;12680;57.804;12.190;2023-04-24T09:09:23;10.50;99.90
24522;DHT22;12680;57.804;12.190;2023-04-24T09:11:51;12.00;99.90
24522;DHT22;12680;57.804;12.190;2023-04-24T09:14:20;10.60;99.90
24522;DHT22;12680;57.804;12.190;2023-04-24T09:16:47;10.60;99.90
24522;DHT22;12680;57.804;12.190;2023-04-24T09:19:14;10.50;99.90
24522;DHT22;12680;57.804;12.190;2023-04-24T09:21:45;11.20;99.90
24522;DHT22;12680;57.804;12.190;2023-04-24T09:24:20;11.50;99.90
24522;DHT22;12680;57.804;12.190;2023-04-24T09:26:58;12.00;99.90
24522;DHT22;12680;57.804;12.190;2023-04-24T09:29:25;10.40;99.90
24522;DHT22;12680;57.804;12.190;2023-04-24T09:31:52;10.40;99.90
24522;DHT22;12680;57.804;12.190;2023-04-24T09:34:23;10.50;99.90
24522;DHT22;12680;57.804;12.190;2023-04-24T09:36:51;10.60;99.90
24522;DHT22;12680;57.804;12.190;2023-04-24T09:39:18;10.60;99.90
24522;DHT22;12680;57.804;12.190;2023-04-24T09:41:55;10.50;99.90
24522;DHT22;12680;57.804;12.190;2023-04-24T09:44:26;10.50;99.90
24522;DHT22;12680;57.804;12.190;2023-04-24T09:47:00;10.60;99.90
24522;DHT22;12680;57.804;12.190;2023-04-24T09:49:28;10.90;99.90
24522;DHT22;12680;57.804;12.190;2023-04-24T09:52:09;11.70;99.90
24522;DHT22;12680;57.804;12.190;2023-04-24T09:54:37;10.60;99.90
24522;DHT22;12680;57.804;12.190;2023-04-24T09:57:07;10.70;99.90
24522;DHT22;12680;57.804;12.190;2023-04-24T09:59:34;11.00;99.90
24522;DHT22;12680;57.804;12.190;2023-04-24T10:02:03;10.80;99.90
24522;DHT22;12680;57.804;12.190;2023-04-24T10:04:41;10.90;99.90
24522;DHT22;12680;57.804;12.190;2023-04-24T10:07:20;11.10;99.90
24522;DHT22;12680;57.804;12.190;2023-04-24T10:09:47;13.10;99.90
24522;DHT22;12680;57.804;12.190;2023-04-24T10:12:14;11.80;99.90
24522;DHT22;12680;57.804;12.190;2023-04-24T10:14:41;13.00;99.90
24522;DHT22;12680;57.804;12.190;2023-04-24T10:17:10;12.40;99.90
24522;DHT22;12680;57.804;12.190;2023-04-24T10:19:38;12.80;99.90
24522;DHT22;12680;57.804;12.190;2023-04-24T10:22:07;12.60;99.90
24522;DHT22;12680;57.804;12.190;2023-04-24T10:24:34;12.70;99.90
24522;DHT22;12680;57.804;12.190;2023-04-24T10:27:03;12.70;99.90
24522;DHT22;12680;57.804;12.190;2023-04-24T10:29:32;12.70;99.90
24522;DHT22;12680;57.804;12.190;2023-04-24T10:31:59;12.70;99.90
24522;DHT22;12680;57.804;12.190;2023-04-24T10:34:26;12.70;99.90
24522;DHT22;12680;57.804;12.190;2023-04-24T10:36:54;13.50;99.90
24522;DHT22;12680;57.804;12.190;2023-04-24T10:39:24;12.60;99.90
24522;DHT22;12680;57.804;12.190;2023-04-24T10:41:54;12.70;99.90
24522;DHT22;12680;57.804;12.190;2023-04-24T10:44:24;12.90;99.90
24522;DHT22;12680;57.804;12.190;2023-04-24T10:46:55;13.00;99.90
24522;DHT22;12680;57.804;12.190;2023-04-24T10:49:29;13.10;99.60
24522;DHT22;12680;57.804;12.190;2023-04-24T10:52:01;13.10;99.40
24522;DHT22;12680;57.804;12.190;2023-04-24T10:54:44;13.10;99.60
24522;DHT22;12680;57.804;12.190;2023-04-24T10:59:48;13.60;99.80
24522;DHT22;12680;57.804;12.190;2023-04-24T11:02:17;14.70;99.80
24522;DHT22;12680;57.804;12.190;2023-04-24T11:04:45;13.90;99.20
24522;DHT22;12680;57.804;12.190;2023-04-24T11:07:12;15.30;99.30
24522;DHT22;12680;57.804;12.190;2023-04-24T11:09:42;14.00;98.80
24522;DHT22;12680;57.804;12.190;2023-04-24T11:12:11;15.30;99.60
24522;DHT22;12680;57.804;12.190;2023-04-24T11:15:01;14.30;98.60
24522;DHT22;12680;57.804;12.190;2023-04-24T11:17:34;14.30;98.20
24522;DHT22;12680;57.804;12.190;2023-04-24T11:20:06;14.30;98.40
24522;DHT22;12680;57.804;12.190;2023-04-24T11:22:53;14.30;98.20
24522;DHT22;12680;57.804;12.190;2023-04-24T11:25:21;14.50;98.40
24522;DHT22;12680;57.804;12.190;2023-04-24T11:28:03;14.80;98.50
24522;DHT22;12680;57.804;12.190;2023-04-24T11:30:31;15.20;98.30
24522;DHT22;12680;57.804;12.190;2023-04-24T11:33:04;15.90;97.90
24522;DHT22;12680;57.804;12.190;2023-04-24T11:35:34;15.30;97.20
24522;DHT22;12680;57.804;12.190;2023-04-24T11:38:03;15.30;97.20
24522;DHT22;12680;57.804;12.190;2023-04-24T11:40:34;15.30;97.00
24522;DHT22;12680;57.804;12.190;2023-04-24T11:43:04;16.60;97.10
24522;DHT22;12680;57.804;12.190;2023-04-24T11:45:33;15.40;96.80
24522;DHT22;12680;57.804;12.190;2023-04-24T11:48:00;15.60;96.80
24522;DHT22;12680;57.804;12.190;2023-04-24T11:50:27;16.40;96.80
24522;DHT22;12680;57.804;12.190;2023-04-24T11:52:55;15.90;96.60
24522;DHT22;12680;57.804;12.190;2023-04-24T11:57:55;16.40;95.50
24522;DHT22;12680;57.804;12.190;2023-04-24T12:00:28;16.30;95.20
24522;DHT22;12680;57.804;12.190;2023-04-24T12:03:09;16.20;95.00
24522;DHT22;12680;57.804;12.190;2023-04-24T12:05:39;16.00;94.80
24522;DHT22;12680;57.804;12.190;2023-04-24T12:08:06;17.20;95.40
24522;DHT22;12680;57.804;12.190;2023-04-24T12:10:33;16.00;95.60
24522;DHT22;12680;57.804;12.190;2023-04-24T12:13:01;16.20;95.20
24522;DHT22;12680;57.804;12.190;2023-04-24T12:15:28;16.30;95.00
24522;DHT22;12680;57.804;12.190;2023-04-24T12:17:56;16.50;95.10
24522;DHT22;12680;57.804;12.190;2023-04-24T12:20:28;16.50;94.60
24522;DHT22;12680;57.804;12.190;2023-04-24T12:22:57;16.60;94.80
24522;DHT22;12680;57.804;12.190;2023-04-24T12:25:29;16.70;94.20
24522;DHT22;12680;57.804;12.190;2023-04-24T12:30:34;16.80;94.00
24522;DHT22;12680;57.804;12.190;2023-04-24T12:33:02;17.00;93.90
24522;DHT22;12680;57.804;12.190;2023-04-24T12:35:31;17.10;93.40
24522;DHT22;12680;57.804;12.190;2023-04-24T12:38:07;17.10;93.10
24522;DHT22;12680;57.804;12.190;2023-04-24T12:40:35;17.10;93.20
24522;DHT22;12680;57.804;12.190;2023-04-24T12:43:17;16.90;93.00
24522;DHT22;12680;57.804;12.190;2023-04-24T12:45:44;16.80;93.10
24522;DHT22;12680;57.804;12.190;2023-04-24T12:48:11;16.80;93.20
24522;DHT22;12680;57.804;12.190;2023-04-24T12:50:40;16.70;93.10
24522;DHT22;12680;57.804;12.190;2023-04-24T12:53:11;16.50;93.00
24522;DHT22;12680;57.804;12.190;2023-04-24T12:55:38;17.70;93.40
24522;DHT22;12680;57.804;12.190;2023-04-24T12:58:04;16.10;93.10
24522;DHT22;12680;57.804;12.190;2023-04-24T13:00:32;16.60;93.30
24522;DHT22;12680;57.804;12.190;2023-04-24T13:02:59;15.90;93.20
24522;DHT22;12680;57.804;12.190;2023-04-24T13:05:26;15.80;93.30
24522;DHT22;12680;57.804;12.190;2023-04-24T13:07:53;17.50;93.90
24522;DHT22;12680;57.804;12.190;2023-04-24T13:10:20;15.70;93.30
24522;DHT22;12680;57.804;12.190;2023-04-24T13:12:46;15.60;93.30
24522;DHT22;12680;57.804;12.190;2023-04-24T13:15:13;15.60;93.60
24522;DHT22;12680;57.804;12.190;2023-04-24T13:17:40;15.70;93.70
24522;DHT22;12680;57.804;12.190;2023-04-24T13:20:08;17.10;94.20
24522;DHT22;12680;57.804;12.190;2023-04-24T13:22:36;16.00;93.80
24522;DHT22;12680;57.804;12.190;2023-04-24T13:25:03;16.40;93.70
24522;DHT22;12680;57.804;12.190;2023-04-24T13:27:32;16.50;93.30
24522;DHT22;12680;57.804;12.190;2023-04-24T13:29:59;16.60;93.10
24522;DHT22;12680;57.804;12.190;2023-04-24T13:32:26;16.60;93.00
24522;DHT22;12680;57.804;12.190;2023-04-24T13:34:54;16.60;92.90
24522;DHT22;12680;57.804;12.190;2023-04-24T13:37:21;16.40;92.60
24522;DHT22;12680;57.804;12.190;2023-04-24T13:39:48;16.40;92.60
24522;DHT22;12680;57.804;12.190;2023-04-24T13:42:15;17.10;92.90
24522;DHT22;12680;57.804;12.190;2023-04-24T13:44:42;16.30;92.70
24522;DHT22;12680;57.804;12.190;2023-04-24T13:47:09;16.20;92.60
24522;DHT22;12680;57.804;12.190;2023-04-24T13:49:35;16.00;92.60
24522;DHT22;12680;57.804;12.190;2023-04-24T13:52:02;15.90;92.60
24522;DHT22;12680;57.804;12.190;2023-04-24T13:54:29;17.10;93.10
24522;DHT22;12680;57.804;12.190;2023-04-24T13:56:57;15.60;92.90
24522;DHT22;12680;57.804;12.190;2023-04-24T13:59:25;15.50;93.00
24522;DHT22;12680;57.804;12.190;2023-04-24T14:01:52;15.30;93.10
24522;DHT22;12680;57.804;12.190;2023-04-24T14:04:18;15.10;93.30
24522;DHT22;12680;57.804;12.190;2023-04-24T14:06:46;14.90;93.50
24522;DHT22;12680;57.804;12.190;2023-04-24T14:09:12;14.80;93.80
24522;DHT22;12680;57.804;12.190;2023-04-24T14:11:40;14.80;94.00
24522;DHT22;12680;57.804;12.190;2023-04-24T14:14:07;14.70;94.30
24522;DHT22;12680;57.804;12.190;2023-04-24T14:16:35;14.70;94.50
24522;DHT22;12680;57.804;12.190;2023-04-24T14:19:02;14.80;94.60
24522;DHT22;12680;57.804;12.190;2023-04-24T14:21:29;14.70;94.70
24522;DHT22;12680;57.804;12.190;2023-04-24T14:23:57;14.70;94.70
24522;DHT22;12680;57.804;12.190;2023-04-24T14:26:32;14.80;94.90
24522;DHT22;12680;57.804;12.190;2023-04-24T14:29:09;14.90;94.90
24522;DHT22;12680;57.804;12.190;2023-04-24T14:31:42;14.90;94.90
24522;DHT22;12680;57.804;12.190;2023-04-24T14:34:10;15.00;94.90
24522;DHT22;12680;57.804;12.190;2023-04-24T14:36:41;15.00;94.90
24522;DHT22;12680;57.804;12.190;2023-04-24T14:39:12;15.00;94.90
24522;DHT22;12680;57.804;12.190;2023-04-24T14:41:39;15.00;94.80
24522;DHT22;12680;57.804;12.190;2023-04-24T14:44:11;15.00;94.90
24522;DHT22;12680;57.804;12.190;2023-04-24T14:46:48;14.90;94.80
24522;DHT22;12680;57.804;12.190;2023-04-24T14:49:16;14.80;94.80
24522;DHT22;12680;57.804;12.190;2023-04-24T14:51:43;14.70;94.80
24522;DHT22;12680;57.804;12.190;2023-04-24T14:54:10;14.70;94.80
24522;DHT22;12680;57.804;12.190;2023-04-24T14:56:37;14.60;94.90
24522;DHT22;12680;57.804;12.190;2023-04-24T14:59:07;14.50;94.90
24522;DHT22;12680;57.804;12.190;2023-04-24T15:01:34;14.50;95.00
24522;DHT22;12680;57.804;12.190;2023-04-24T15:04:02;14.40;95.00
24522;DHT22;12680;57.804;12.190;2023-04-24T15:06:30;14.40;95.10
24522;DHT22;12680;57.804;12.190;2023-04-24T15:08:58;14.40;95.10
24522;DHT22;12680;57.804;12.190;2023-04-24T15:11:26;14.30;95.10
24522;DHT22;12680;57.804;12.190;2023-04-24T15:13:55;14.30;95.20
24522;DHT22;12680;57.804;12.190;2023-04-24T15:16:23;14.20;95.30
24522;DHT22;12680;57.804;12.190;2023-04-24T15:18:51;14.70;95.60
24522;DHT22;12680;57.804;12.190;2023-04-24T15:21:18;14.00;95.50
24522;DHT22;12680;57.804;12.190;2023-04-24T15:23:45;14.00;95.60
24522;DHT22;12680;57.804;12.190;2023-04-24T15:26:13;14.00;95.70
24522;DHT22;12680;57.804;12.190;2023-04-24T15:28:41;14.00;95.80
24522;DHT22;12680;57.804;12.190;2023-04-24T15:31:08;14.00;95.80
24522;DHT22;12680;57.804;12.190;2023-04-24T15:33:35;14.00;95.90
24522;DHT22;12680;57.804;12.190;2023-04-24T15:36:02;14.00;96.00